createdAt,value
2018-07-28T00:01:00.000Z,22.7
2018-07-28T00:06:00.000Z,22.6
2018-07-28T00:11:00.000Z,22.5
2018-07-28T00:16:00.000Z,22.4
2018-07-28T00:21:00.000Z,22.4
2018-07-28T00:26:00.000Z,22.2
2018-07-28T00:31:00.000Z,22.1
2018-07-28T00:36:00.000Z,22.1
2018-07-28T00:41:00.000Z,22.0
2018-07-28T00:47:00.000Z,22.0
2018-07-28T00:52:00.000Z,22.0
2018-07-28T00:57:00.000Z,21.9
2018-07-28T01:02:00.000Z,21.8
2018-07-28T01:07:00.000Z,21.7
2018-07-28T01:12:00.000Z,21.6
2018-07-28T01:17:00.000Z,21.6
2018-07-28T01:22:00.000Z,21.5
2018-07-28T01:27:00.000Z,21.5
2018-07-28T01:32:00.000Z,21.5
2018-07-28T01:37:00.000Z,21.5
2018-07-28T01:42:00.000Z,21.4
2018-07-28T01:47:00.000Z,21.4
2018-07-28T01:52:00.000Z,21.3
2018-07-28T01:57:00.000Z,21.3
2018-07-28T02:02:00.000Z,21.3
2018-07-28T02:07:00.000Z,21.3
2018-07-28T02:12:00.000Z,21.3
2018-07-28T02:17:00.000Z,21.3
2018-07-28T02:22:00.000Z,21.3
2018-07-28T02:27:00.000Z,21.3
2018-07-28T02:32:00.000Z,21.3
2018-07-28T02:37:00.000Z,21.3
2018-07-28T02:42:00.000Z,21.3
2018-07-28T02:47:00.000Z,21.3
2018-07-28T02:52:00.000Z,21.2
2018-07-28T02:57:00.000Z,21.1
2018-07-28T03:02:00.000Z,21.1
2018-07-28T03:07:00.000Z,21.0
2018-07-28T03:12:00.000Z,21.0
2018-07-28T03:17:00.000Z,21.0
2018-07-28T03:22:00.000Z,20.9
2018-07-28T03:27:00.000Z,20.8
2018-07-28T03:32:00.000Z,20.8
2018-07-28T03:37:00.000Z,20.7
2018-07-28T03:42:00.000Z,20.7
2018-07-28T03:47:00.000Z,20.7
2018-07-28T03:52:00.000Z,20.7
2018-07-28T03:57:00.000Z,20.8
2018-07-28T04:02:00.000Z,20.8
2018-07-28T04:07:00.000Z,20.8
2018-07-28T04:12:00.000Z,20.9
2018-07-28T04:17:00.000Z,20.9
2018-07-28T04:22:00.000Z,20.9
2018-07-28T04:27:00.000Z,20.9
2018-07-28T04:32:00.000Z,20.9
2018-07-28T04:37:00.000Z,21.0
2018-07-28T04:42:00.000Z,21.0
2018-07-28T04:47:00.000Z,21.0
2018-07-28T04:52:00.000Z,21.0
2018-07-28T04:57:00.000Z,21.0
2018-07-28T05:02:00.000Z,21.0
2018-07-28T05:07:00.000Z,20.9
2018-07-28T05:12:00.000Z,20.9
2018-07-28T05:17:00.000Z,21.0
2018-07-28T05:22:00.000Z,21.0
2018-07-28T05:27:00.000Z,21.1
2018-07-28T05:32:00.000Z,21.1
2018-07-28T05:37:00.000Z,21.2
2018-07-28T05:42:00.000Z,21.2
2018-07-28T05:47:00.000Z,21.3
2018-07-28T05:52:00.000Z,21.4
2018-07-28T05:57:00.000Z,21.5
2018-07-28T06:02:00.000Z,21.6
2018-07-28T06:07:00.000Z,21.7
2018-07-28T06:12:00.000Z,21.9
2018-07-28T06:17:00.000Z,22.1
2018-07-28T06:22:00.000Z,22.4
2018-07-28T06:27:00.000Z,22.6
2018-07-28T06:32:00.000Z,22.8
2018-07-28T06:37:00.000Z,23.1
2018-07-28T06:42:00.000Z,23.2
2018-07-28T06:47:00.000Z,23.3
2018-07-28T06:53:00.000Z,23.5
2018-07-28T06:58:00.000Z,23.8
2018-07-28T07:03:00.000Z,23.9
2018-07-28T07:08:00.000Z,24.0
2018-07-28T07:13:00.000Z,24.2
2018-07-28T07:18:00.000Z,24.5
2018-07-28T07:23:00.000Z,25.1
2018-07-28T07:28:00.000Z,25.6
2018-07-28T07:33:00.000Z,26.4
2018-07-28T07:38:00.000Z,27.2
2018-07-28T07:43:00.000Z,27.9
2018-07-28T07:48:00.000Z,28.4
2018-07-28T07:53:00.000Z,28.8
2018-07-28T07:58:00.000Z,29.4
2018-07-28T08:03:00.000Z,30.0
2018-07-28T08:08:00.000Z,30.4
2018-07-28T08:13:00.000Z,30.9
2018-07-28T08:18:00.000Z,31.2
2018-07-28T08:23:00.000Z,31.5
2018-07-28T08:28:00.000Z,31.9
2018-07-28T08:33:00.000Z,32.3
2018-07-28T08:38:00.000Z,32.6
2018-07-28T08:43:00.000Z,32.6
2018-07-28T08:48:00.000Z,32.7
2018-07-28T08:53:00.000Z,32.7
2018-07-28T08:58:00.000Z,33.0
2018-07-28T09:03:00.000Z,33.4
2018-07-28T09:08:00.000Z,33.5
2018-07-28T09:13:00.000Z,33.6
2018-07-28T09:18:00.000Z,33.9
2018-07-28T09:23:00.000Z,33.8
2018-07-28T09:28:00.000Z,33.8
2018-07-28T09:33:00.000Z,33.5
2018-07-28T09:38:00.000Z,33.5
2018-07-28T09:43:00.000Z,33.7
2018-07-28T09:48:00.000Z,34.0
2018-07-28T09:53:00.000Z,34.1
2018-07-28T09:58:00.000Z,33.8
2018-07-28T10:03:00.000Z,33.7
2018-07-28T10:08:00.000Z,33.9
2018-07-28T10:13:00.000Z,34.2
2018-07-28T10:18:00.000Z,34.5
2018-07-28T10:23:00.000Z,34.3
2018-07-28T10:28:00.000Z,34.1
2018-07-28T10:33:00.000Z,34.3
2018-07-28T10:38:00.000Z,34.2
2018-07-28T10:43:00.000Z,34.4
2018-07-28T10:48:00.000Z,34.4
2018-07-28T10:53:00.000Z,34.3
2018-07-28T10:58:00.000Z,34.4
2018-07-28T11:03:00.000Z,34.4
2018-07-28T11:08:00.000Z,34.3
2018-07-28T11:13:00.000Z,34.1
2018-07-28T11:18:00.000Z,33.9
2018-07-28T11:23:00.000Z,33.7
2018-07-28T11:28:00.000Z,33.5
2018-07-28T11:33:00.000Z,33.2
2018-07-28T11:38:00.000Z,33.0
2018-07-28T11:43:00.000Z,32.9
2018-07-28T11:48:00.000Z,32.9
2018-07-28T11:53:00.000Z,33.0
2018-07-28T11:58:00.000Z,33.1
2018-07-28T12:03:00.000Z,33.0
2018-07-28T12:08:00.000Z,33.0
2018-07-28T12:13:00.000Z,33.1
2018-07-28T12:18:00.000Z,33.1
2018-07-28T12:23:00.000Z,33.3
2018-07-28T12:28:00.000Z,33.4
2018-07-28T12:33:00.000Z,33.4
2018-07-28T12:38:00.000Z,33.6
2018-07-28T12:43:00.000Z,33.7
2018-07-28T12:48:00.000Z,34.0
2018-07-28T12:54:00.000Z,34.0
2018-07-28T12:59:00.000Z,33.7
2018-07-28T13:04:00.000Z,33.4
2018-07-28T13:09:00.000Z,33.4
2018-07-28T13:14:00.000Z,33.3
2018-07-28T13:19:00.000Z,33.0
2018-07-28T13:24:00.000Z,32.8
2018-07-28T13:29:00.000Z,33.3
2018-07-28T13:34:00.000Z,33.5
2018-07-28T13:39:00.000Z,34.2
2018-07-28T13:44:00.000Z,34.8
2018-07-28T13:49:00.000Z,34.6
2018-07-28T13:54:00.000Z,34.2
2018-07-28T13:59:00.000Z,33.7
2018-07-28T14:04:00.000Z,33.6
2018-07-28T14:09:00.000Z,33.5
2018-07-28T14:14:00.000Z,33.7
2018-07-28T14:19:00.000Z,33.6
2018-07-28T14:24:00.000Z,33.3
2018-07-28T14:29:00.000Z,33.6
2018-07-28T14:34:00.000Z,33.9
2018-07-28T14:39:00.000Z,34.1
2018-07-28T14:44:00.000Z,34.3
2018-07-28T14:49:00.000Z,34.4
2018-07-28T14:54:00.000Z,34.4
2018-07-28T14:59:00.000Z,34.2
2018-07-28T15:04:00.000Z,34.0
2018-07-28T15:09:00.000Z,34.0
2018-07-28T15:14:00.000Z,33.6
2018-07-28T15:19:00.000Z,33.0
2018-07-28T15:24:00.000Z,32.5
2018-07-28T15:29:00.000Z,32.2
2018-07-28T15:34:00.000Z,32.2
2018-07-28T15:39:00.000Z,32.2
2018-07-28T15:44:00.000Z,32.4
2018-07-28T15:49:00.000Z,33.2
2018-07-28T15:54:00.000Z,33.5
2018-07-28T15:59:00.000Z,33.4
2018-07-28T16:04:00.000Z,33.1
2018-07-28T16:09:00.000Z,32.7
2018-07-28T16:14:00.000Z,32.3
2018-07-28T16:19:00.000Z,32.1
2018-07-28T16:24:00.000Z,31.8
2018-07-28T16:29:00.000Z,31.6
2018-07-28T16:34:00.000Z,31.4
2018-07-28T16:39:00.000Z,31.3
2018-07-28T16:44:00.000Z,31.2
2018-07-28T16:49:00.000Z,31.0
2018-07-28T16:54:00.000Z,30.9
2018-07-28T16:59:00.000Z,30.8
2018-07-28T17:04:00.000Z,30.7
2018-07-28T17:09:00.000Z,30.5
2018-07-28T17:14:00.000Z,30.4
2018-07-28T17:19:00.000Z,30.4
2018-07-28T17:24:00.000Z,30.3
2018-07-28T17:29:00.000Z,30.1
2018-07-28T17:34:00.000Z,30.0
2018-07-28T17:39:00.000Z,29.9
2018-07-28T17:44:00.000Z,29.8
2018-07-28T17:49:00.000Z,29.6
2018-07-28T17:54:00.000Z,29.5
2018-07-28T17:59:00.000Z,29.3
2018-07-28T18:04:00.000Z,29.2
2018-07-28T18:09:00.000Z,29.1
2018-07-28T18:14:00.000Z,29.0
2018-07-28T18:19:00.000Z,28.9
2018-07-28T18:24:00.000Z,28.7
2018-07-28T18:29:00.000Z,28.6
2018-07-28T18:34:00.000Z,28.5
2018-07-28T18:39:00.000Z,28.4
2018-07-28T18:44:00.000Z,28.3
2018-07-28T18:49:00.000Z,28.2
2018-07-28T18:55:00.000Z,28.1
2018-07-28T19:00:00.000Z,28.0
2018-07-28T19:05:00.000Z,27.9
2018-07-28T19:10:00.000Z,27.8
2018-07-28T19:15:00.000Z,27.7
2018-07-28T19:20:00.000Z,27.6
2018-07-28T19:25:00.000Z,27.5
2018-07-28T19:30:00.000Z,27.4
2018-07-28T19:35:00.000Z,27.3
2018-07-28T19:40:00.000Z,27.3
2018-07-28T19:45:00.000Z,27.2
2018-07-28T19:50:00.000Z,27.1
2018-07-28T19:55:00.000Z,27.1
2018-07-28T20:00:00.000Z,27.0
2018-07-28T20:05:00.000Z,27.0
2018-07-28T20:10:00.000Z,26.9
2018-07-28T20:15:00.000Z,26.9
2018-07-28T20:20:00.000Z,26.8
2018-07-28T20:25:00.000Z,26.8
2018-07-28T20:30:00.000Z,26.7
2018-07-28T20:35:00.000Z,26.6
2018-07-28T20:40:00.000Z,26.5
2018-07-28T20:45:00.000Z,26.5
2018-07-28T20:50:00.000Z,26.4
2018-07-28T20:55:00.000Z,26.4
2018-07-28T21:00:00.000Z,26.4
2018-07-28T21:05:00.000Z,26.3
2018-07-28T21:10:00.000Z,26.3
2018-07-28T21:15:00.000Z,26.2
2018-07-28T21:20:00.000Z,26.2
2018-07-28T21:25:00.000Z,26.2
2018-07-28T21:30:00.000Z,26.1
2018-07-28T21:35:00.000Z,26.1
2018-07-28T21:40:00.000Z,26.1
2018-07-28T21:45:00.000Z,26.1
2018-07-28T21:50:00.000Z,26.0
2018-07-28T21:55:00.000Z,26.0
2018-07-28T22:00:00.000Z,25.9
2018-07-28T22:05:00.000Z,25.8
2018-07-28T22:10:00.000Z,25.6
2018-07-28T22:15:00.000Z,25.4
2018-07-28T22:20:00.000Z,25.3
2018-07-28T22:25:00.000Z,25.1
2018-07-28T22:30:00.000Z,24.9
2018-07-28T22:35:00.000Z,24.8
2018-07-28T22:40:00.000Z,24.7
2018-07-28T22:45:00.000Z,24.6
2018-07-28T22:50:00.000Z,24.6
2018-07-28T22:55:00.000Z,24.6
2018-07-28T23:00:00.000Z,24.6
2018-07-28T23:05:00.000Z,24.6
2018-07-28T23:10:00.000Z,24.6
2018-07-28T23:15:00.000Z,24.6
2018-07-28T23:20:00.000Z,24.6
2018-07-28T23:25:00.000Z,24.6
2018-07-28T23:30:00.000Z,24.5
2018-07-28T23:35:00.000Z,24.4
2018-07-28T23:40:00.000Z,24.4
2018-07-28T23:45:00.000Z,24.3
2018-07-28T23:50:00.000Z,24.3
2018-07-28T23:55:00.000Z,24.2
